createdAt,value
2023-03-05T00:00:31.618Z,101556.66
2023-03-05T00:03:16.876Z,101553.31
2023-03-05T00:06:08.405Z,101553.97
2023-03-05T00:09:03.426Z,101553.44
2023-03-05T00:11:54.387Z,101555.16
2023-03-05T00:14:39.930Z,101549.03
2023-03-05T00:17:31.404Z,101552.78
2023-03-05T00:20:16.395Z,101549.44
2023-03-05T00:23:08.373Z,101549.84
2023-03-05T00:25:59.254Z,101552.19
2023-03-05T00:28:51.372Z,101539.16
2023-03-05T00:31:40.437Z,101544.50
2023-03-05T00:34:34.381Z,101548.53
2023-03-05T00:37:39.412Z,101545.91
2023-03-05T00:40:31.449Z,101541.44
2023-03-05T00:43:20.877Z,101533.03
2023-03-05T00:46:15.446Z,101531.34
2023-03-05T00:49:03.884Z,101532.91
2023-03-05T00:51:58.148Z,101525.16
2023-03-05T00:54:45.513Z,101520.84
2023-03-05T00:57:36.390Z,101522.16
2023-03-05T01:00:24.048Z,101520.38
2023-03-05T01:03:18.389Z,101526.31
2023-03-05T01:06:09.140Z,101519.19
2023-03-05T01:09:01.361Z,101514.47
2023-03-05T01:11:46.563Z,101509.03
2023-03-05T01:14:42.372Z,101504.72
2023-03-05T01:17:27.402Z,101496.84
2023-03-05T01:20:20.362Z,101497.22
2023-03-05T01:23:05.287Z,101497.66
2023-03-05T01:26:05.380Z,101491.25
2023-03-05T01:28:50.371Z,101488.63
2023-03-05T01:31:41.424Z,101489.34
2023-03-05T01:34:26.486Z,101494.91
2023-03-05T01:37:20.374Z,101495.31
2023-03-05T01:40:17.311Z,101489.22
2023-03-05T01:43:22.380Z,101491.56
2023-03-05T01:46:33.321Z,101475.09
2023-03-05T01:49:34.398Z,101478.44
2023-03-05T01:52:30.327Z,101469.94
2023-03-05T01:55:22.805Z,101469.09
2023-03-05T01:58:20.371Z,101461.44
2023-03-05T02:01:05.627Z,101464.03
2023-03-05T02:03:57.414Z,101457.28
2023-03-05T02:06:43.354Z,101455.69
2023-03-05T02:09:36.373Z,101453.06
2023-03-05T02:12:22.008Z,101446.84
2023-03-05T02:15:14.382Z,101450.31
2023-03-05T02:18:02.587Z,101443.63
2023-03-05T02:20:58.404Z,101437.31
2023-03-05T02:23:43.408Z,101438.47
2023-03-05T02:26:34.392Z,101425.34
2023-03-05T02:29:22.659Z,101426.72
2023-03-05T02:32:16.501Z,101431.91
2023-03-05T02:35:01.813Z,101429.94
2023-03-05T02:37:53.383Z,101419.44
2023-03-05T02:40:46.572Z,101421.03
2023-03-05T02:43:31.619Z,101412.09
2023-03-05T02:46:23.369Z,101408.56
2023-03-05T02:49:08.526Z,101402.56
2023-03-05T02:52:00.381Z,101401.72
2023-03-05T02:54:47.664Z,101403.00
2023-03-05T02:57:39.417Z,101397.09
2023-03-05T03:00:24.371Z,101389.34
2023-03-05T03:03:16.466Z,101388.69
2023-03-05T03:06:02.762Z,101389.56
2023-03-05T03:08:57.397Z,101393.13
2023-03-05T03:11:42.488Z,101396.34
2023-03-05T03:14:34.394Z,101386.53
2023-03-05T03:17:19.550Z,101388.91
2023-03-05T03:20:14.409Z,101383.13
2023-03-05T03:23:06.404Z,101389.03
2023-03-05T03:25:58.385Z,101386.91
2023-03-05T03:28:50.432Z,101387.13
2023-03-05T03:31:42.384Z,101386.19
2023-03-05T03:34:36.398Z,101383.34
2023-03-05T03:37:32.573Z,101375.69
2023-03-05T03:40:34.415Z,101376.31
2023-03-05T03:43:22.108Z,101375.28
2023-03-05T03:46:14.416Z,101366.88
2023-03-05T03:48:59.419Z,101367.31
2023-03-05T03:51:51.398Z,101368.03
2023-03-05T03:54:42.429Z,101357.44
2023-03-05T03:57:29.018Z,101360.91
2023-03-05T04:00:22.365Z,101352.19
2023-03-05T04:03:09.983Z,101350.22
2023-03-05T04:06:11.419Z,101356.19
2023-03-05T04:08:58.820Z,101346.94
2023-03-05T04:11:53.044Z,101342.63
2023-03-05T04:14:38.245Z,101341.19
2023-03-05T04:17:29.393Z,101333.00
2023-03-05T04:20:14.978Z,101334.44
2023-03-05T04:23:06.406Z,101323.16
2023-03-05T04:26:04.697Z,101322.31
2023-03-05T04:28:52.125Z,101324.72
2023-03-05T04:31:43.434Z,101323.66
2023-03-05T04:34:28.500Z,101314.22
2023-03-05T04:37:19.393Z,101312.88
2023-03-05T04:40:05.090Z,101308.47
2023-03-05T04:42:56.387Z,101320.00
2023-03-05T04:45:42.968Z,101314.97
2023-03-05T04:48:34.401Z,101307.94
2023-03-05T04:51:25.409Z,101310.34
2023-03-05T04:54:19.403Z,101306.16
2023-03-05T04:57:10.395Z,101301.22
2023-03-05T04:59:55.562Z,101305.41
2023-03-05T05:02:57.448Z,101294.06
2023-03-05T05:05:42.281Z,101297.41
2023-03-05T05:08:34.434Z,101292.50
2023-03-05T05:11:19.565Z,101296.91
2023-03-05T05:14:11.421Z,101294.28
2023-03-05T05:17:02.388Z,101294.16
2023-03-05T05:19:47.225Z,101293.09
2023-03-05T05:22:39.402Z,101284.72
2023-03-05T05:25:27.348Z,101287.88
2023-03-05T05:28:19.409Z,101279.72
2023-03-05T05:31:15.465Z,101281.81
2023-03-05T05:34:00.495Z,101279.06
2023-03-05T05:36:54.430Z,101278.88
2023-03-05T05:39:57.617Z,101279.41
2023-03-05T05:42:49.410Z,101269.31
2023-03-05T05:45:34.772Z,101283.19
2023-03-05T05:48:26.411Z,101284.84
2023-03-05T05:51:14.831Z,101278.88
2023-03-05T05:54:10.622Z,101279.81
2023-03-05T05:57:02.453Z,101279.81
2023-03-05T05:59:47.236Z,101272.78
2023-03-05T06:02:39.441Z,101270.88
2023-03-05T06:05:34.426Z,101273.50
2023-03-05T06:08:19.517Z,101270.03
2023-03-05T06:11:18.952Z,101267.53
2023-03-05T06:14:11.406Z,101279.78
2023-03-05T06:17:03.449Z,101274.09
2023-03-05T06:19:54.416Z,101273.63
2023-03-05T06:22:40.341Z,101276.00
2023-03-05T06:25:34.416Z,101283.13
2023-03-05T06:28:20.178Z,101275.94
2023-03-05T06:31:23.424Z,101285.16
2023-03-05T06:34:08.273Z,101273.38
2023-03-05T06:37:07.432Z,101274.22
2023-03-05T06:39:58.691Z,101283.25
2023-03-05T06:42:50.432Z,101276.13
2023-03-05T06:45:35.626Z,101271.94
2023-03-05T06:48:26.444Z,101275.00
2023-03-05T06:51:31.420Z,101274.56
2023-03-05T06:54:17.313Z,101275.09
2023-03-05T06:57:09.420Z,101275.94
2023-03-05T06:59:59.765Z,101272.13
2023-03-05T07:02:51.483Z,101267.00
2023-03-05T07:05:47.430Z,101256.00
2023-03-05T07:08:41.449Z,101256.94
2023-03-05T07:11:33.429Z,101256.94
2023-03-05T07:14:20.895Z,101258.84
2023-03-05T07:17:18.197Z,101253.50
2023-03-05T07:20:12.313Z,101240.81
2023-03-05T07:23:03.439Z,101250.88
2023-03-05T07:25:50.376Z,101243.63
2023-03-05T07:28:42.664Z,101244.47
2023-03-05T07:31:37.428Z,101245.31
2023-03-05T07:34:22.657Z,101245.63
2023-03-05T07:37:17.664Z,101235.38
2023-03-05T07:40:04.389Z,101226.25
2023-03-05T07:42:55.437Z,101236.09
2023-03-05T07:45:42.461Z,101233.06
2023-03-05T07:48:39.263Z,101234.13
2023-03-05T07:51:36.457Z,101242.59
2023-03-05T07:54:22.532Z,101238.53
2023-03-05T07:57:19.825Z,101249.63
2023-03-05T08:00:13.462Z,101244.25
2023-03-05T08:02:58.259Z,101242.34
2023-03-05T08:05:51.432Z,101235.66
2023-03-05T08:08:36.627Z,101235.25
2023-03-05T08:11:28.452Z,101236.28
2023-03-05T08:14:20.450Z,101231.25
2023-03-05T08:17:13.455Z,101232.09
2023-03-05T08:20:06.459Z,101213.97
2023-03-05T08:22:51.622Z,101223.09
2023-03-05T08:25:44.458Z,101216.16
2023-03-05T08:28:29.190Z,101218.53
2023-03-05T08:31:23.520Z,101210.28
2023-03-05T08:34:08.371Z,101212.56
2023-03-05T08:36:59.449Z,101208.22
2023-03-05T08:39:50.504Z,101204.38
2023-03-05T08:42:42.436Z,101205.41
2023-03-05T08:45:28.416Z,101202.03
2023-03-05T08:48:20.463Z,101199.63
2023-03-05T08:51:26.452Z,101197.00
2023-03-05T08:54:11.190Z,101190.56
2023-03-05T08:57:02.436Z,101198.16
2023-03-05T08:59:54.461Z,101194.94
2023-03-05T09:02:39.874Z,101190.19
2023-03-05T09:05:31.460Z,101189.19
2023-03-05T09:08:17.439Z,101188.78
2023-03-05T09:11:10.441Z,101180.03
2023-03-05T09:13:55.252Z,101177.28
2023-03-05T09:16:49.268Z,101175.63
2023-03-05T09:19:40.469Z,101169.38
2023-03-05T09:22:25.749Z,101165.19
2023-03-05T09:25:18.471Z,101171.97
2023-03-05T09:28:03.487Z,101180.53
2023-03-05T09:30:56.423Z,101161.06
2023-03-05T09:33:48.474Z,101157.06
2023-03-05T09:36:33.750Z,101156.59
2023-03-05T09:39:32.467Z,101147.06
2023-03-05T09:42:29.393Z,101135.31
2023-03-05T09:45:28.547Z,101135.41
2023-03-05T09:48:20.621Z,101127.28
2023-03-05T09:51:19.473Z,101120.84
2023-03-05T09:54:19.467Z,101107.13
2023-03-05T09:57:06.703Z,101123.53
2023-03-05T10:00:04.465Z,101108.81
2023-03-05T10:03:04.546Z,101116.72
2023-03-05T10:06:11.077Z,101113.50
2023-03-05T10:09:08.461Z,101115.69
2023-03-05T10:11:53.583Z,101115.19
2023-03-05T10:14:46.456Z,101112.16
2023-03-05T10:18:04.472Z,101109.44
2023-03-05T10:21:04.463Z,101113.41
2023-03-05T10:23:55.479Z,101112.72
2023-03-05T10:26:58.530Z,101100.19
2023-03-05T10:29:56.644Z,101096.88
2023-03-05T10:33:00.468Z,101089.69
2023-03-05T10:36:00.472Z,101088.00
2023-03-05T10:39:01.519Z,101088.63
2023-03-05T10:42:14.469Z,101081.94
2023-03-05T10:45:08.480Z,101080.94
2023-03-05T10:48:07.421Z,101082.88
2023-03-05T10:51:06.483Z,101076.53
2023-03-05T10:54:10.214Z,101078.25
2023-03-05T10:57:25.478Z,101077.03
2023-03-05T11:00:22.186Z,101074.41
2023-03-05T11:03:19.480Z,101070.59
2023-03-05T11:06:04.778Z,101073.81
2023-03-05T11:08:56.485Z,101070.69
2023-03-05T11:11:47.486Z,101074.63
2023-03-05T11:14:33.594Z,101078.03
2023-03-05T11:17:34.475Z,101074.00
2023-03-05T11:20:31.686Z,101070.81
2023-03-05T11:23:30.492Z,101075.56
2023-03-05T11:26:25.246Z,101063.41
2023-03-05T11:29:25.509Z,101066.53
2023-03-05T11:32:22.163Z,101066.03
2023-03-05T11:35:38.524Z,101058.41
2023-03-05T11:38:36.464Z,101054.06
2023-03-05T11:41:41.523Z,101040.69
2023-03-05T11:44:41.482Z,101042.69
2023-03-05T11:47:37.268Z,101039.19
2023-03-05T11:50:31.492Z,101036.84
2023-03-05T11:53:23.730Z,101035.19
2023-03-05T11:56:33.509Z,101034.56
2023-03-05T11:59:46.475Z,101025.38
2023-03-05T12:02:38.570Z,101019.06
2023-03-05T12:05:28.019Z,101020.28
2023-03-05T12:08:26.498Z,101016.34
2023-03-05T12:11:26.210Z,101011.00
2023-03-05T12:14:35.516Z,101000.72
2023-03-05T12:17:39.829Z,100989.16
2023-03-05T12:20:49.010Z,100986.84
2023-03-05T12:23:58.492Z,100978.09
2023-03-05T12:27:02.509Z,100976.53
2023-03-05T12:29:52.224Z,100975.59
2023-03-05T12:32:43.538Z,100971.91
2023-03-05T12:35:39.627Z,100958.44
2023-03-05T12:38:39.486Z,100957.34
2023-03-05T12:41:32.908Z,100952.09
2023-03-05T12:44:27.496Z,100943.75
2023-03-05T12:47:12.584Z,100941.22
2023-03-05T12:50:07.502Z,100933.34
2023-03-05T12:53:18.453Z,100929.94
2023-03-05T12:56:22.509Z,100926.56
2023-03-05T12:59:16.503Z,100925.16
2023-03-05T13:02:04.891Z,100927.03
2023-03-05T13:04:59.504Z,100918.59
2023-03-05T13:07:44.566Z,100917.28
2023-03-05T13:10:36.504Z,100911.88
2023-03-05T13:13:23.756Z,100907.59
2023-03-05T13:16:31.524Z,100902.56
2023-03-05T13:19:19.115Z,100902.44
2023-03-05T13:22:17.512Z,100895.88
2023-03-05T13:25:26.544Z,100896.25
2023-03-05T13:28:14.498Z,100890.53
2023-03-05T13:31:09.520Z,100885.00
2023-03-05T13:34:03.278Z,100881.28
2023-03-05T13:37:01.508Z,100880.69
2023-03-05T13:40:31.513Z,100877.16
2023-03-05T13:43:26.489Z,100867.44
2023-03-05T13:46:11.963Z,100866.31
2023-03-05T13:49:22.560Z,100863.00
2023-03-05T13:52:07.710Z,100853.09
2023-03-05T13:54:59.555Z,100854.97
2023-03-05T13:57:50.882Z,100848.06
2023-03-05T14:00:45.548Z,100844.69
2023-03-05T14:03:37.494Z,100844.81
2023-03-05T14:06:25.061Z,100834.75
2023-03-05T14:09:37.502Z,100834.72
2023-03-05T14:12:37.691Z,100833.63
2023-03-05T14:15:35.498Z,100823.69
2023-03-05T14:18:20.782Z,100821.69
2023-03-05T14:21:15.508Z,100822.03
2023-03-05T14:24:12.168Z,100818.88
2023-03-05T14:27:11.507Z,100810.56
2023-03-05T14:29:56.388Z,100802.28
2023-03-05T14:32:51.519Z,100800.69
2023-03-05T14:35:36.806Z,100799.00
2023-03-05T14:38:31.520Z,100790.28
2023-03-05T14:41:37.624Z,100786.81
2023-03-05T14:44:31.521Z,100776.84
2023-03-05T14:47:18.946Z,100766.88
2023-03-05T14:50:11.537Z,100773.28
2023-03-05T14:53:07.529Z,100758.53
2023-03-05T14:56:03.559Z,100753.09
2023-03-05T14:58:48.585Z,100752.97
2023-03-05T15:01:40.667Z,100753.31
2023-03-05T15:04:25.819Z,100742.78
2023-03-05T15:07:23.517Z,100742.09
2023-03-05T15:10:09.464Z,100745.09
2023-03-05T15:13:03.512Z,100748.69
2023-03-05T15:15:50.357Z,100739.50
2023-03-05T15:18:41.514Z,100743.97
2023-03-05T15:21:26.399Z,100729.53
2023-03-05T15:24:19.529Z,100731.47
2023-03-05T15:27:12.513Z,100728.00
2023-03-05T15:29:59.427Z,100725.84
2023-03-05T15:32:50.522Z,100709.13
2023-03-05T15:35:36.095Z,100712.09
2023-03-05T15:38:35.525Z,100711.50
2023-03-05T15:41:28.516Z,100712.50
2023-03-05T15:44:13.592Z,100704.31
2023-03-05T15:47:05.517Z,100702.53
2023-03-05T15:49:57.526Z,100699.75
2023-03-05T15:52:49.534Z,100699.94
2023-03-05T15:55:39.491Z,100694.00
2023-03-05T15:58:31.531Z,100692.78
2023-03-05T16:01:19.155Z,100684.34
2023-03-05T16:04:11.642Z,100682.69
2023-03-05T16:06:59.294Z,100678.41
2023-03-05T16:09:54.540Z,100678.03
2023-03-05T16:12:49.526Z,100670.53
2023-03-05T16:15:41.578Z,100674.56
2023-03-05T16:18:33.545Z,100668.72
2023-03-05T16:21:25.541Z,100661.75
2023-03-05T16:24:10.517Z,100660.44
2023-03-05T16:27:04.528Z,100673.19
2023-03-05T16:29:51.008Z,100662.69
2023-03-05T16:32:44.560Z,100663.56
2023-03-05T16:35:29.832Z,100663.31
2023-03-05T16:38:22.538Z,100662.41
2023-03-05T16:41:17.968Z,100656.09
2023-03-05T16:44:14.571Z,100654.44
2023-03-05T16:46:59.857Z,100655.66
2023-03-05T16:49:53.539Z,100646.50
2023-03-05T16:52:38.569Z,100648.28
2023-03-05T16:55:30.542Z,100640.75
2023-03-05T16:58:15.756Z,100635.41
2023-03-05T17:01:07.649Z,100643.53
2023-03-05T17:03:53.439Z,100636.50
2023-03-05T17:06:44.562Z,100630.94
2023-03-05T17:09:30.138Z,100633.16
2023-03-05T17:12:28.896Z,100630.19
2023-03-05T17:15:16.373Z,100631.72
2023-03-05T17:18:08.532Z,100631.72
2023-03-05T17:20:53.789Z,100628.09
2023-03-05T17:23:47.080Z,100633.06
2023-03-05T17:26:32.698Z,100633.91
2023-03-05T17:29:25.540Z,100629.25
2023-03-05T17:32:11.250Z,100624.38
2023-03-05T17:35:05.489Z,100625.47
2023-03-05T17:37:57.637Z,100628.19
2023-03-05T17:40:55.563Z,100617.00
2023-03-05T17:43:42.156Z,100616.50
2023-03-05T17:46:33.560Z,100620.78
2023-03-05T17:49:18.506Z,100621.31
2023-03-05T17:52:10.549Z,100621.53
2023-03-05T17:54:56.111Z,100622.41
2023-03-05T17:57:53.077Z,100622.88
2023-03-05T18:00:40.729Z,100626.44
2023-03-05T18:03:34.544Z,100621.19
2023-03-05T18:06:19.509Z,100621.56
2023-03-05T18:09:11.553Z,100628.22
2023-03-05T18:11:56.770Z,100624.50
2023-03-05T18:14:48.554Z,100622.03
2023-03-05T18:17:33.599Z,100625.50
2023-03-05T18:20:33.560Z,100620.00
2023-03-05T18:23:18.782Z,100614.78
2023-03-05T18:26:10.571Z,100607.63
2023-03-05T18:28:55.728Z,100610.69
2023-03-05T18:31:46.568Z,100599.03
2023-03-05T18:34:31.645Z,100601.75
2023-03-05T18:37:22.543Z,100596.88
2023-03-05T18:40:14.600Z,100590.09
2023-03-05T18:43:09.546Z,100590.94
2023-03-05T18:45:55.787Z,100591.03
2023-03-05T18:48:54.547Z,100591.63
2023-03-05T18:51:41.569Z,100584.59
2023-03-05T18:54:33.540Z,100580.94
2023-03-05T18:57:18.446Z,100584.38
2023-03-05T19:00:10.588Z,100582.56
2023-03-05T19:02:56.565Z,100585.56
2023-03-05T19:05:48.563Z,100578.78
2023-03-05T19:08:34.052Z,100571.28
2023-03-05T19:11:27.561Z,100576.63
2023-03-05T19:14:12.520Z,100565.31
2023-03-05T19:17:05.365Z,100566.03
2023-03-05T19:19:52.401Z,100570.78
2023-03-05T19:22:43.557Z,100568.78
2023-03-05T19:25:28.355Z,100571.75
2023-03-05T19:28:19.574Z,100574.16
2023-03-05T19:31:07.058Z,100567.47
2023-03-05T19:34:00.562Z,100567.25
2023-03-05T19:36:45.254Z,100556.69
2023-03-05T19:39:37.561Z,100557.47
2023-03-05T19:42:22.375Z,100554.78
2023-03-05T19:45:14.566Z,100555.72
2023-03-05T19:47:59.718Z,100561.94
2023-03-05T19:50:51.570Z,100561.34
2023-03-05T19:53:37.309Z,100553.25
2023-03-05T19:56:29.568Z,100560.03
2023-03-05T19:59:17.706Z,100558.84
2023-03-05T20:02:12.553Z,100557.53
2023-03-05T20:05:04.556Z,100558.13
2023-03-05T20:07:49.442Z,100555.88
2023-03-05T20:10:43.570Z,100557.06
2023-03-05T20:13:29.019Z,100551.34
2023-03-05T20:16:44.598Z,100558.50
2023-03-05T20:19:30.552Z,100556.00
2023-03-05T20:22:22.582Z,100549.47
2023-03-05T20:25:07.922Z,100546.38
2023-03-05T20:27:59.567Z,100544.69
2023-03-05T20:30:44.759Z,100540.88
2023-03-05T20:33:37.561Z,100534.59
2023-03-05T20:36:24.000Z,100532.91
2023-03-05T20:39:15.571Z,100533.00
2023-03-05T20:42:06.778Z,100537.53
2023-03-05T20:44:58.567Z,100519.22
2023-03-05T20:47:53.562Z,100523.03
2023-03-05T20:50:38.630Z,100520.66
2023-03-05T20:53:30.571Z,100518.25
2023-03-05T20:56:16.841Z,100517.06
2023-03-05T20:59:13.584Z,100506.59
2023-03-05T21:01:59.099Z,100508.72
2023-03-05T21:04:52.581Z,100506.47
2023-03-05T21:07:43.593Z,100500.03
2023-03-05T21:10:28.409Z,100492.69
2023-03-05T21:13:19.598Z,100495.88
2023-03-05T21:16:09.475Z,100490.88
2023-03-05T21:19:03.578Z,100477.53
2023-03-05T21:21:54.578Z,100478.53
2023-03-05T21:24:53.768Z,100481.38
2023-03-05T21:27:45.594Z,100479.31
2023-03-05T21:30:41.868Z,100476.47
2023-03-05T21:33:36.589Z,100471.50
2023-03-05T21:36:21.835Z,100470.78
2023-03-05T21:39:13.582Z,100463.16
2023-03-05T21:42:11.598Z,100457.91
2023-03-05T21:44:56.597Z,100461.38
2023-03-05T21:47:48.606Z,100456.50
2023-03-05T21:50:41.617Z,100449.72
2023-03-05T21:53:33.819Z,100451.63
2023-03-05T21:56:20.315Z,100439.34
2023-03-05T21:59:13.798Z,100437.56
2023-03-05T22:01:58.856Z,100440.31
2023-03-05T22:04:53.565Z,100432.56
2023-03-05T22:07:39.764Z,100436.75
2023-03-05T22:10:31.572Z,100435.09
2023-03-05T22:13:24.614Z,100427.72
2023-03-05T22:16:11.360Z,100420.91
2023-03-05T22:19:02.579Z,100422.91
2023-03-05T22:21:50.331Z,100409.69
2023-03-05T22:24:43.935Z,100416.03
2023-03-05T22:27:31.988Z,100415.44
2023-03-05T22:30:23.569Z,100403.75
2023-03-05T22:33:09.562Z,100404.59
2023-03-05T22:36:01.598Z,100404.84
2023-03-05T22:39:06.586Z,100393.44
2023-03-05T22:41:57.576Z,100397.00
2023-03-05T22:44:49.584Z,100403.91
2023-03-05T22:47:41.645Z,100389.28
2023-03-05T22:50:26.796Z,100392.72
2023-03-05T22:53:18.585Z,100383.06
2023-03-05T22:56:08.691Z,100383.78
2023-03-05T22:59:00.592Z,100395.44
2023-03-05T23:01:45.673Z,100395.34
2023-03-05T23:04:55.604Z,100385.69
2023-03-05T23:07:41.909Z,100392.00
2023-03-05T23:10:36.587Z,100385.13
2023-03-05T23:13:21.809Z,100379.88
2023-03-05T23:16:14.694Z,100378.59
2023-03-05T23:18:59.475Z,100376.91
2023-03-05T23:21:52.608Z,100372.03
2023-03-05T23:24:37.418Z,100369.78
2023-03-05T23:27:28.601Z,100375.50
2023-03-05T23:30:19.448Z,100376.06
2023-03-05T23:33:21.599Z,100376.94
2023-03-05T23:36:06.627Z,100375.63
2023-03-05T23:38:59.602Z,100372.53
2023-03-05T23:41:57.590Z,100368.75
2023-03-05T23:44:42.482Z,100368.84
2023-03-05T23:47:33.628Z,100363.63
2023-03-05T23:50:21.594Z,100371.22
2023-03-05T23:53:14.863Z,100358.63
2023-03-05T23:56:00.115Z,100350.06
2023-03-05T23:58:53.563Z,100358.06
